Time;durP1;ratioP1;P1;durP2;ratioP2;P2;SDS_P1;SDS_P2;PMS_P1;PMS_P2;Temp;Humidity;BMP_temperature;BMP_pressure;BME280_temperature;BME280_humidity;BME280_pressure;Samples;Min_cycle;Max_cycle;Signal;HPM_P1;HPM_P2
2023/07/12 00:01:00;;;;;;;9.30;6.43;;;25.10;99.90;;;;;;5129403;27;20035;-57
2023/07/12 00:03:26;;;;;;;9.48;6.20;;;25.20;99.90;;;;;;5132417;27;20035;-55
2023/07/12 00:05:53;;;;;;;12.02;7.13;;;25.30;99.90;;;;;;5138341;27;20031;-57
2023/07/12 00:08:24;;;;;;;9.07;6.32;;;25.40;99.90;;;;;;5137816;27;20023;-55
2023/07/12 00:10:51;;;;;;;7.90;6.47;;;25.40;99.90;;;;;;5137769;27;20027;-56
2023/07/12 00:13:17;;;;;;;9.38;6.97;;;25.40;99.90;;;;;;5136041;27;20267;-54
2023/07/12 00:15:45;;;;;;;12.40;8.63;;;25.40;99.90;;;;;;5137235;27;20485;-53
2023/07/12 00:18:19;;;;;;;8.50;6.72;;;25.40;99.90;;;;;;5063628;28;20040;-54
2023/07/12 00:20:46;;;;;;;9.35;6.70;;;25.40;99.90;;;;;;5115254;28;20452;-53
2023/07/12 00:23:15;;;;;;;9.55;6.13;;;25.30;99.90;;;;;;5115077;28;20040;-55
2023/07/12 00:25:43;;;;;;;8.38;5.80;;;25.30;99.90;;;;;;5114890;28;20055;-55
2023/07/12 00:28:28;;;;;;;8.35;5.72;;;25.40;99.90;;;;;;5064207;28;20407;-55
2023/07/12 00:30:56;;;;;;;8.77;6.32;;;25.40;99.90;;;;;;5114441;28;20032;-53
2023/07/12 00:33:23;;;;;;;11.43;7.65;;;25.40;99.90;;;;;;5114808;28;20036;-56
2023/07/12 00:35:49;;;;;;;11.13;9.45;;;25.50;99.90;;;;;;5114904;28;20047;-56
2023/07/12 00:38:21;;;;;;;18.52;12.70;;;25.40;99.90;;;;;;5114927;28;20071;-55
2023/07/12 00:40:47;;;;;;;13.23;7.97;;;25.40;99.90;;;;;;5114704;28;20035;-53
2023/07/12 00:43:19;;;;;;;10.60;6.40;;;25.40;99.90;;;;;;5114502;28;20119;-53
2023/07/12 00:45:46;;;;;;;10.70;6.20;;;25.30;99.90;;;;;;5114551;28;20052;-55
2023/07/12 00:48:13;;;;;;;8.32;6.32;;;25.30;99.90;;;;;;5082962;27;20031;-54
2023/07/12 00:50:40;;;;;;;10.48;7.13;;;25.20;99.90;;;;;;5137794;27;20355;-54
2023/07/12 00:53:12;;;;;;;8.60;6.70;;;25.00;99.90;;;;;;5137032;27;20043;-53
2023/07/12 00:55:59;;;;;;;8.18;6.63;;;24.80;99.90;;;;;;5137171;27;20034;-53
2023/07/12 00:58:29;;;;;;;9.45;6.20;;;24.80;99.90;;;;;;5137001;27;20122;-56
2023/07/12 01:00:58;;;;;;;7.15;6.05;;;24.80;99.90;;;;;;5135126;27;20045;-55
2023/07/12 01:03:28;;;;;;;9.20;6.65;;;24.80;99.90;;;;;;5136799;27;20035;-55
2023/07/12 01:05:54;;;;;;;9.65;6.88;;;24.40;99.90;;;;;;5137011;27;20038;-55
2023/07/12 01:08:21;;;;;;;11.00;6.88;;;24.10;99.90;;;;;;5137174;27;20374;-56
2023/07/12 01:10:47;;;;;;;10.30;7.15;;;24.20;99.90;;;;;;5135610;27;20390;-56
2023/07/12 01:13:13;;;;;;;10.65;7.13;;;24.30;99.90;;;;;;5136329;27;20432;-53
2023/07/12 01:15:39;;;;;;;9.10;6.88;;;24.30;99.90;;;;;;5136868;27;20023;-54
2023/07/12 01:18:06;;;;;;;8.05;6.72;;;24.00;99.90;;;;;;5137046;27;20031;-55
2023/07/12 01:20:38;;;;;;;8.15;6.90;;;24.20;99.90;;;;;;5134981;27;20431;-56
2023/07/12 01:23:04;;;;;;;7.38;6.50;;;24.40;99.90;;;;;;5136333;27;20075;-53
2023/07/12 01:25:42;;;;;;;10.45;7.03;;;24.40;99.90;;;;;;5136589;27;20474;-55
2023/07/12 01:28:08;;;;;;;10.65;7.13;;;24.50;99.90;;;;;;5136515;27;20366;-55
2023/07/12 01:30:35;;;;;;;9.05;6.97;;;24.60;99.90;;;;;;5136870;27;20030;-56
2023/07/12 01:33:00;;;;;;;9.65;7.75;;;24.60;99.90;;;;;;5136362;27;20027;-54
2023/07/12 01:35:26;;;;;;;9.98;7.55;;;24.60;99.90;;;;;;5136564;27;20098;-53
2023/07/12 01:37:52;;;;;;;12.73;6.68;;;24.60;99.90;;;;;;5136488;27;20031;-55
2023/07/12 01:40:18;;;;;;;7.60;5.97;;;24.60;99.90;;;;;;5136379;27;20386;-52
2023/07/12 01:42:44;;;;;;;9.73;6.18;;;24.50;99.90;;;;;;5136497;27;20023;-54
2023/07/12 01:45:10;;;;;;;7.82;6.72;;;24.20;99.90;;;;;;5135924;27;20039;-54
2023/07/12 01:47:36;;;;;;;8.27;6.28;;;24.20;99.90;;;;;;5136393;27;20029;-53
2023/07/12 01:50:02;;;;;;;10.00;6.25;;;24.30;99.90;;;;;;5117033;27;20383;-52
2023/07/12 01:52:28;;;;;;;10.90;6.35;;;24.20;99.90;;;;;;5136061;27;20030;-56
2023/07/12 01:54:54;;;;;;;8.63;6.40;;;24.10;99.90;;;;;;5116729;27;20079;-56
2023/07/12 01:57:20;;;;;;;8.77;6.50;;;23.80;99.90;;;;;;5136180;27;20110;-54
2023/07/12 01:59:45;;;;;;;6.60;5.80;;;23.70;99.90;;;;;;5135956;27;20393;-52
2023/07/12 02:02:11;;;;;;;10.35;6.28;;;23.60;99.90;;;;;;5136177;27;20142;-56
2023/07/12 02:04:37;;;;;;;8.07;6.68;;;23.40;99.90;;;;;;5116832;27;20043;-54
2023/07/12 02:07:03;;;;;;;9.48;6.65;;;;;;;;;;5135831;27;20019;-56
2023/07/12 02:09:35;;;;;;;8.52;6.80;;;23.10;99.90;;;;;;5116854;27;20035;-55
2023/07/12 02:12:01;;;;;;;8.30;6.20;;;23.20;99.90;;;;;;5113043;28;20606;-55
2023/07/12 02:14:27;;;;;;;11.52;6.28;;;23.30;99.90;;;;;;5112810;28;20035;-52
2023/07/12 02:16:52;;;;;;;7.85;6.10;;;23.30;99.90;;;;;;5062279;28;20032;-55
2023/07/12 02:19:18;;;;;;;8.25;6.38;;;23.30;99.90;;;;;;5112707;28;20110;-56
2023/07/12 02:21:44;;;;;;;9.27;7.03;;;23.30;99.90;;;;;;5112961;28;20035;-52
2023/07/12 02:24:09;;;;;;;7.80;7.00;;;23.20;99.90;;;;;;5111582;28;20487;-55
2023/07/12 02:26:36;;;;;;;9.45;6.68;;;;;;;;;;5112658;28;20067;-55
2023/07/12 02:29:02;;;;;;;10.20;7.50;;;;;;;;;;5112606;28;20030;-53
2023/07/12 02:31:31;;;;;;;9.32;7.30;;;;;;;;;;5112625;28;20048;-55
2023/07/12 02:33:56;;;;;;;8.80;7.18;;;22.60;99.90;;;;;;5095541;28;20027;-55
2023/07/12 02:36:22;;;;;;;15.93;6.63;;;;;;;;;;5112503;28;20031;-53
2023/07/12 02:38:48;;;;;;;9.80;6.78;;;22.60;99.90;;;;;;5044999;28;20081;-55
2023/07/12 02:41:18;;;;;;;11.80;7.07;;;22.60;99.90;;;;;;5061861;28;20031;-56
2023/07/12 02:43:46;;;;;;;10.82;5.47;;;22.50;99.90;;;;;;5130534;27;20039;-54
2023/07/12 02:46:12;;;;;;;9.20;6.80;;;22.20;99.90;;;;;;5135175;27;20049;-56
2023/07/12 02:48:38;;;;;;;8.05;5.93;;;22.10;99.90;;;;;;5134924;27;20470;-53
2023/07/12 02:51:03;;;;;;;9.73;6.82;;;22.10;99.90;;;;;;5131943;27;20023;-55
2023/07/12 02:53:30;;;;;;;9.93;6.53;;;22.00;99.90;;;;;;5134630;27;20047;-55
2023/07/12 02:55:56;;;;;;;10.48;7.10;;;21.90;99.90;;;;;;5135147;27;20071;-53
2023/07/12 02:58:22;;;;;;;8.27;6.95;;;21.90;99.90;;;;;;5135043;27;20023;-55
2023/07/12 03:00:48;;;;;;;10.45;6.88;;;21.80;99.90;;;;;;5108438;28;20090;-53
2023/07/12 03:03:14;;;;;;;7.03;5.57;;;21.70;99.90;;;;;;5058073;28;20442;-52
2023/07/12 03:05:40;;;;;;;7.88;6.72;;;21.90;99.90;;;;;;5091435;28;20032;-52
2023/07/12 03:08:07;;;;;;;10.80;6.38;;;22.00;99.90;;;;;;5091568;28;20028;-54
2023/07/12 03:10:37;;;;;;;16.17;7.22;;;22.10;99.90;;;;;;5091625;28;20036;-56
2023/07/12 03:13:03;;;;;;;9.15;6.28;;;22.40;99.90;;;;;;5091390;28;20040;-54
2023/07/12 03:15:28;;;;;;;8.05;5.78;;;22.60;99.90;;;;;;5091381;28;20074;-54
2023/07/12 03:17:54;;;;;;;8.27;6.47;;;22.70;99.90;;;;;;5091429;28;20024;-54
2023/07/12 03:20:20;;;;;;;6.82;5.80;;;22.70;99.90;;;;;;5091510;28;20548;-55
2023/07/12 03:22:46;;;;;;;9.02;5.82;;;22.60;99.90;;;;;;5091037;28;20093;-52
2023/07/12 03:25:11;;;;;;;7.40;6.18;;;22.60;99.90;;;;;;5057451;28;20036;-56
2023/07/12 03:27:37;;;;;;;7.70;5.53;;;22.60;99.90;;;;;;5041003;28;20032;-54
2023/07/12 03:30:04;;;;;;;9.35;5.85;;;22.90;99.90;;;;;;5091430;28;20107;-54
2023/07/12 03:32:31;;;;;;;8.07;5.57;;;23.10;99.90;;;;;;5109195;28;20126;-54
2023/07/12 03:34:56;;;;;;;8.95;5.63;;;23.30;99.90;;;;;;5113506;28;20032;-55
2023/07/12 03:37:22;;;;;;;11.60;6.45;;;23.40;99.90;;;;;;5094840;28;20032;-55
2023/07/12 03:39:48;;;;;;;7.65;5.38;;;23.50;99.90;;;;;;5113597;28;20412;-55
2023/07/12 03:42:14;;;;;;;6.95;5.32;;;23.50;99.90;;;;;;5094957;28;20054;-52
2023/07/12 03:44:39;;;;;;;6.63;5.43;;;23.60;99.90;;;;;;5113765;28;20071;-54
2023/07/12 03:47:05;;;;;;;6.55;5.38;;;23.70;99.90;;;;;;5113445;28;20092;-55
2023/07/12 03:49:31;;;;;;;7.32;6.05;;;23.70;99.90;;;;;;5113631;28;20035;-55
2023/07/12 03:51:57;;;;;;;6.60;5.50;;;;;;;;;;5114033;28;20375;-54
2023/07/12 03:54:23;;;;;;;9.02;5.50;;;;;;;;;;5111333;28;20124;-53
2023/07/12 03:56:50;;;;;;;7.53;6.10;;;23.90;99.90;;;;;;5094607;28;20051;-55
2023/07/12 03:59:16;;;;;;;6.93;6.15;;;;;;;;;;5113631;28;20374;-53
2023/07/12 04:01:42;;;;;;;8.10;6.20;;;23.90;99.90;;;;;;5114060;28;20031;-54
2023/07/12 04:04:07;;;;;;;7.20;6.20;;;24.00;99.90;;;;;;5128390;28;20050;-53
2023/07/12 04:06:33;;;;;;;7.05;5.85;;;23.90;99.90;;;;;;5113834;28;20027;-52
2023/07/12 04:08:59;;;;;;;8.43;6.45;;;23.90;99.90;;;;;;5113422;28;20023;-55
2023/07/12 04:11:29;;;;;;;10.23;6.82;;;23.90;99.90;;;;;;5111662;28;20437;-54
2023/07/12 04:13:55;;;;;;;9.57;6.97;;;23.90;99.90;;;;;;5113162;28;20088;-53
2023/07/12 04:16:26;;;;;;;8.88;7.15;;;23.80;99.90;;;;;;5111683;28;20028;-54
2023/07/12 04:18:52;;;;;;;9.65;6.78;;;23.80;99.90;;;;;;5113702;28;20099;-55
2023/07/12 04:21:18;;;;;;;13.27;7.65;;;23.80;99.90;;;;;;5111478;28;20043;-55
2023/07/12 04:23:49;;;;;;;11.75;7.70;;;23.80;99.90;;;;;;5118192;28;20386;-54
2023/07/12 04:26:17;;;;;;;10.48;7.47;;;23.80;99.90;;;;;;5134003;28;20556;-54
2023/07/12 04:28:48;;;;;;;11.00;7.03;;;23.80;99.90;;;;;;5133038;28;20509;-54
2023/07/12 04:31:16;;;;;;;9.95;6.70;;;23.90;99.90;;;;;;5133972;27;20039;-53
2023/07/12 04:33:42;;;;;;;12.02;8.18;;;;;;;;;;5133629;27;20030;-56
2023/07/12 04:36:12;;;;;;;19.13;12.93;;;24.00;99.90;;;;;;5133478;28;20019;-53
2023/07/12 04:38:38;;;;;;;11.05;9.05;;;24.00;99.90;;;;;;5133307;27;20102;-53
2023/07/12 04:41:05;;;;;;;11.48;8.70;;;24.10;99.90;;;;;;5133565;28;20035;-53
2023/07/12 04:43:31;;;;;;;9.55;7.97;;;24.20;99.90;;;;;;5133661;28;20098;-54
2023/07/12 04:45:58;;;;;;;10.77;8.02;;;24.30;99.90;;;;;;5133432;27;20037;-53
2023/07/12 04:48:24;;;;;;;11.98;8.02;;;24.30;99.90;;;;;;5137183;27;20027;-55
2023/07/12 04:50:51;;;;;;;9.82;8.55;;;24.40;99.90;;;;;;5137662;27;20027;-52
2023/07/12 04:53:17;;;;;;;11.63;7.70;;;24.40;99.90;;;;;;5135361;27;20133;-55
2023/07/12 04:55:43;;;;;;;11.05;7.30;;;24.50;99.90;;;;;;5137585;27;20582;-52
2023/07/12 04:58:09;;;;;;;11.23;7.63;;;24.60;99.90;;;;;;5137665;27;20026;-54
2023/07/12 05:00:35;;;;;;;9.30;7.15;;;24.60;99.90;;;;;;5137301;27;20379;-56
2023/07/12 05:03:01;;;;;;;9.60;6.60;;;24.80;99.90;;;;;;5137194;27;20026;-56
2023/07/12 05:05:27;;;;;;;9.18;7.47;;;24.80;99.90;;;;;;5137370;27;20031;-54
2023/07/12 05:07:52;;;;;;;8.85;6.30;;;24.90;99.90;;;;;;5137762;27;20042;-54
2023/07/12 05:10:18;;;;;;;8.70;6.97;;;;;;;;;;5136774;27;20033;-54
2023/07/12 05:12:45;;;;;;;8.95;7.20;;;25.20;99.90;;;;;;5137297;27;20066;-53
2023/07/12 05:15:11;;;;;;;9.30;7.95;;;25.30;99.90;;;;;;5136760;27;20497;-53
2023/07/12 05:17:38;;;;;;;10.48;6.63;;;;;;;;;;5136950;27;20420;-55
2023/07/12 05:20:06;;;;;;;7.65;6.43;;;25.60;99.90;;;;;;5136805;27;20084;-52
2023/07/12 05:22:33;;;;;;;8.90;6.88;;;25.70;99.90;;;;;;5137029;27;20073;-52
2023/07/12 05:24:59;;;;;;;8.48;6.43;;;;;;;;;;5136786;27;20385;-55
2023/07/12 05:27:25;;;;;;;10.73;7.18;;;26.20;99.90;;;;;;5136728;27;20466;-55
2023/07/12 05:29:51;;;;;;;11.35;7.40;;;;;;;;;;5134625;27;20074;-56
2023/07/12 05:32:17;;;;;;;8.35;6.93;;;;;;;;;;5136818;27;20019;-57
2023/07/12 05:34:43;;;;;;;11.15;7.43;;;;;;;;;;5136571;27;20054;-53
2023/07/12 05:37:11;;;;;;;10.65;7.70;;;;;;;;;;5136292;27;20038;-52
2023/07/12 05:39:37;;;;;;;9.63;7.55;;;;;;;;;;5135531;27;20023;-53
2023/07/12 05:42:03;;;;;;;11.52;8.20;;;;;;;;;;5116190;27;20402;-55
2023/07/12 05:44:29;;;;;;;12.05;8.55;;;;;;;;;;5135444;27;20038;-53
2023/07/12 05:46:56;;;;;;;12.30;8.73;;;;;;;;;;5116690;27;20038;-55
2023/07/12 05:49:23;;;;;;;14.98;8.55;;;;;;;;;;5131980;27;20370;-54
2023/07/12 05:51:49;;;;;;;15.45;9.45;;;;;;;;;;5136137;27;20462;-53
2023/07/12 05:54:15;;;;;;;15.15;9.57;;;;;;;;;;5134450;27;20432;-51
2023/07/12 05:56:42;;;;;;;14.88;8.55;;;;;;;;;;5136417;27;20055;-55
2023/07/12 05:59:09;;;;;;;12.55;8.85;;;;;;;;;;5116545;27;20359;-54
2023/07/12 06:01:35;;;;;;;10.07;8.70;;;27.80;99.90;;;;;;5136198;27;20087;-53
2023/07/12 06:04:01;;;;;;;10.68;8.57;;;27.80;99.90;;;;;;5116851;27;20039;-55
2023/07/12 06:06:27;;;;;;;11.40;8.48;;;27.90;99.90;;;;;;5135729;27;20478;-56
2023/07/12 06:08:53;;;;;;;12.73;8.98;;;27.90;99.90;;;;;;5116640;27;20042;-56
2023/07/12 06:11:19;;;;;;;12.07;8.20;;;27.90;99.90;;;;;;5116957;27;20455;-54
2023/07/12 06:13:45;;;;;;;12.50;8.50;;;27.90;99.90;;;;;;5116836;27;20118;-52
2023/07/12 06:16:11;;;;;;;10.40;7.95;;;;;;;;;;5121811;27;20085;-55
2023/07/12 06:18:37;;;;;;;12.13;8.07;;;;;;;;;;5121294;27;20027;-56
2023/07/12 06:21:08;;;;;;;9.10;7.28;;;;;;;;;;5121836;27;20042;-54
2023/07/12 06:23:34;;;;;;;8.90;6.85;;;;;;;;;;5125564;27;20172;-55
2023/07/12 06:26:00;;;;;;;7.63;6.30;;;;;;;;;;5122970;27;20028;-54
2023/07/12 06:28:26;;;;;;;8.65;6.65;;;;;;;;;;5118645;27;20043;-53
2023/07/12 06:30:53;;;;;;;8.18;6.07;;;;;;;;;;5123779;27;20432;-55
2023/07/12 06:33:19;;;;;;;9.25;6.20;;;28.80;99.90;;;;;;5127841;27;20031;-53
2023/07/12 06:35:45;;;;;;;9.90;7.03;;;;;;;;;;5125743;27;20023;-55
2023/07/12 06:38:11;;;;;;;9.30;6.80;;;;;;;;;;5130776;27;20372;-55
2023/07/12 06:40:38;;;;;;;8.80;6.70;;;;;;;;;;5128474;27;20393;-53
2023/07/12 06:43:04;;;;;;;8.80;6.10;;;29.20;99.90;;;;;;5120217;27;20051;-54
2023/07/12 06:45:30;;;;;;;12.73;6.72;;;;;;;;;;5129508;27;20035;-54
2023/07/12 06:47:56;;;;;;;9.30;6.70;;;;;;;;;;5124773;27;20066;-54
2023/07/12 06:50:22;;;;;;;6.65;5.53;;;;;;;;;;5127754;27;20027;-54
2023/07/12 06:52:49;;;;;;;7.50;5.25;;;;;;;;;;5128914;27;20042;-54
2023/07/12 06:55:15;;;;;;;10.15;6.00;;;;;;;;;;5129280;27;20510;-55
2023/07/12 06:57:41;;;;;;;8.75;5.40;;;;;;;;;;5126492;27;20049;-54
2023/07/12 07:00:09;;;;;;;9.98;5.25;;;;;;;;;;5078442;27;20062;-53
2023/07/12 07:02:35;;;;;;;12.10;5.55;;;;;;;;;;5123649;27;20050;-54
2023/07/12 07:05:01;;;;;;;9.15;5.10;;;;;;;;;;5121718;27;20032;-54
2023/07/12 07:07:28;;;;;;;6.95;5.00;;;;;;;;;;5119578;27;20025;-54
2023/07/12 07:09:55;;;;;;;6.57;4.50;;;;;;;;;;5120006;27;20027;-54
2023/07/12 07:12:21;;;;;;;7.85;5.35;;;;;;;;;;5121721;27;20032;-53
2023/07/12 07:14:47;;;;;;;5.40;4.15;;;;;;;;;;5121915;27;20031;-54
2023/07/12 07:17:13;;;;;;;5.25;3.72;;;;;;;;;;5121705;27;20026;-53
2023/07/12 07:19:39;;;;;;;5.90;4.03;;;31.20;99.90;;;;;;5101296;28;20040;-54
2023/07/12 07:22:05;;;;;;;8.02;4.10;;;31.30;99.90;;;;;;5104377;28;20666;-57
2023/07/12 07:24:31;;;;;;;4.65;3.97;;;31.50;99.90;;;;;;5125037;27;20088;-51
2023/07/12 07:26:57;;;;;;;7.00;3.58;;;31.60;99.90;;;;;;5119927;27;20036;-53
2023/07/12 07:29:22;;;;;;;5.90;3.67;;;31.70;99.90;;;;;;5129888;27;20035;-57
2023/07/12 07:31:48;;;;;;;6.70;3.60;;;31.90;99.90;;;;;;5097386;27;20046;-54
2023/07/12 07:34:14;;;;;;;3.70;3.00;;;32.00;99.90;;;;;;5115933;27;20024;-52
2023/07/12 07:36:41;;;;;;;6.18;3.22;;;;;;;;;;5128439;27;20493;-52
2023/07/12 07:39:07;;;;;;;5.32;3.25;;;32.20;99.90;;;;;;5123316;27;20028;-51
2023/07/12 07:41:33;;;;;;;7.07;3.72;;;32.20;99.90;;;;;;5117994;27;20034;-52
2023/07/12 07:43:59;;;;;;;6.60;3.33;;;32.40;99.90;;;;;;5119560;27;20039;-54
2023/07/12 07:46:25;;;;;;;7.07;3.10;;;32.40;99.90;;;;;;5129570;27;20108;-54
2023/07/12 07:48:51;;;;;;;8.07;3.45;;;32.50;99.90;;;;;;5127581;27;20031;-54
2023/07/12 07:51:17;;;;;;;6.57;4.30;;;32.50;99.90;;;;;;5127874;28;20023;-54
2023/07/12 07:53:43;;;;;;;6.97;3.47;;;32.80;99.90;;;;;;5132978;28;20398;-53
2023/07/12 07:56:09;;;;;;;6.43;3.22;;;32.80;99.90;;;;;;5118723;28;20035;-53
2023/07/12 07:58:35;;;;;;;7.07;3.80;;;;;;;;;;5128987;28;20375;-52
2023/07/12 08:01:01;;;;;;;5.10;3.25;;;33.00;99.90;;;;;;5117468;28;20027;-52
2023/07/12 08:03:26;;;;;;;8.50;3.50;;;33.10;99.90;;;;;;5128451;28;20027;-53
2023/07/12 08:05:52;;;;;;;5.75;3.20;;;33.30;99.90;;;;;;5114418;28;20497;-51
2023/07/12 08:08:20;;;;;;;5.57;3.90;;;33.60;99.90;;;;;;5124555;28;20450;-53
2023/07/12 08:10:46;;;;;;;4.82;3.55;;;33.60;99.90;;;;;;5124464;28;20027;-52
2023/07/12 08:13:12;;;;;;;5.07;3.30;;;33.50;99.90;;;;;;5126540;28;20027;-51
2023/07/12 08:15:38;;;;;;;4.65;3.60;;;;;;;;;;5123257;28;20058;-52
2023/07/12 08:18:04;;;;;;;5.85;3.60;;;33.90;99.90;;;;;;5104404;28;20043;-53
2023/07/12 08:20:30;;;;;;;7.35;4.20;;;33.70;99.90;;;;;;5120838;27;20420;-52
2023/07/12 08:22:56;;;;;;;8.38;4.30;;;33.90;99.90;;;;;;5127029;27;20035;-53
2023/07/12 08:25:21;;;;;;;6.40;3.50;;;34.00;99.90;;;;;;5127549;27;20127;-54
2023/07/12 08:27:47;;;;;;;8.80;3.53;;;33.90;99.90;;;;;;5126709;27;20020;-53
2023/07/12 08:30:14;;;;;;;7.65;3.28;;;;;;;;;;5133245;27;20118;-53
2023/07/12 08:32:39;;;;;;;7.15;3.33;;;33.90;99.50;;;;;;5128256;27;20474;-53
2023/07/12 08:35:06;;;;;;;9.82;4.10;;;34.10;99.60;;;;;;5128082;27;20034;-55
2023/07/12 08:37:32;;;;;;;6.03;3.22;;;34.20;99.90;;;;;;5113856;27;20446;-53
2023/07/12 08:39:58;;;;;;;5.78;3.28;;;34.30;99.90;;;;;;5119037;27;20027;-54
2023/07/12 08:42:28;;;;;;;6.53;3.17;;;34.70;99.40;;;;;;5135059;27;20126;-53
2023/07/12 08:44:58;;;;;;;7.35;3.83;;;34.90;99.80;;;;;;5130995;27;20031;-53
2023/07/12 08:47:30;;;;;;;5.10;3.30;;;34.80;99.30;;;;;;5123676;27;20016;-54
2023/07/12 08:49:57;;;;;;;5.93;3.25;;;34.90;99.50;;;;;;5124859;27;20034;-54
2023/07/12 08:52:27;;;;;;;6.90;3.40;;;34.70;99.40;;;;;;5129356;27;20105;-53
2023/07/12 08:54:55;;;;;;;4.40;3.00;;;34.60;98.70;;;;;;5125882;27;20070;-53
2023/07/12 08:57:25;;;;;;;10.15;3.33;;;34.60;98.90;;;;;;5126209;27;20041;-54
2023/07/12 09:00:17;;;;;;;5.80;3.57;;;34.90;99.50;;;;;;5114053;27;20031;-54
2023/07/12 09:02:43;;;;;;;7.35;3.40;;;34.90;98.60;;;;;;5133349;27;20080;-54
2023/07/12 09:05:21;;;;;;;8.48;3.78;;;35.00;98.30;;;;;;5123926;27;20035;-53
2023/07/12 09:08:08;;;;;;;8.13;3.25;;;34.80;98.00;;;;;;5121239;27;20024;-53
2023/07/12 09:10:45;;;;;;;5.68;3.15;;;34.70;97.90;;;;;;5135467;27;20535;-53
2023/07/12 09:13:12;;;;;;;10.00;3.75;;;35.00;98.80;;;;;;5122224;27;20024;-54
2023/07/12 09:15:46;;;;;;;5.60;3.25;;;35.00;98.50;;;;;;5122566;27;20087;-53
2023/07/12 09:18:34;;;;;;;12.55;3.72;;;35.10;99.40;;;;;;5124756;27;20138;-54
2023/07/12 09:21:09;;;;;;;10.70;3.92;;;35.10;98.60;;;;;;5112588;27;20043;-54
2023/07/12 09:23:41;;;;;;;6.32;3.50;;;35.00;98.40;;;;;;5110652;27;20042;-53
2023/07/12 09:26:10;;;;;;;;;;;35.40;99.90;;;;;;5123784;27;20742;-54
2023/07/12 09:28:39;;;;;;;7.45;3.83;;;35.40;99.20;;;;;;5126798;27;19953;-53
2023/07/12 09:31:19;;;;;;;7.40;3.60;;;35.40;98.70;;;;;;5120876;27;20036;-54
2023/07/12 09:33:53;;;;;;;5.68;4.15;;;35.40;98.70;;;;;;5121115;27;20106;-53
2023/07/12 09:36:19;;;;;;;7.07;3.47;;;35.50;98.40;;;;;;5126708;27;20031;-52
2023/07/12 09:38:46;;;;;;;9.60;4.35;;;35.50;98.80;;;;;;5127644;27;20023;-52
2023/07/12 09:41:18;;;;;;;5.63;3.00;;;35.50;98.70;;;;;;5127141;27;20016;-52
2023/07/12 09:43:53;;;;;;;11.25;4.60;;;35.50;98.20;;;;;;5124888;27;20023;-52
2023/07/12 09:46:37;;;;;;;7.82;3.78;;;35.80;98.90;;;;;;5129013;27;20094;-52
2023/07/12 09:49:12;;;;;;;6.53;3.95;;;36.00;99.80;;;;;;5124295;27;20092;-52
2023/07/12 09:52:01;;;;;;;6.85;3.67;;;35.90;99.90;;;;;;5117411;27;20173;-51
2023/07/12 09:54:37;;;;;;;7.82;3.92;;;;;;;;;;5117398;27;20039;-52
2023/07/12 09:57:37;;;;;;;9.90;4.20;;;36.20;99.70;;;;;;5123053;27;20370;-51
2023/07/12 10:00:22;;;;;;;7.97;3.22;;;36.10;99.60;;;;;;5052101;28;20041;-52
2023/07/12 10:03:05;;;;;;;5.13;3.30;;;36.60;98.50;;;;;;5059395;28;20071;-52
2023/07/12 10:05:31;;;;;;;9.85;3.95;;;;;;;;;;5035036;28;20128;-52
2023/07/12 10:08:03;;;;;;;7.20;3.92;;;36.90;98.00;;;;;;5033219;28;20044;-53
2023/07/12 10:10:45;;;;;;;6.25;3.70;;;36.50;98.60;;;;;;5003096;28;20045;-52
2023/07/12 10:13:21;;;;;;;;;;;36.30;98.90;;;;;;5057839;28;20048;-52
2023/07/12 10:15:48;;;;;;;5.65;4.00;;;35.90;98.60;;;;;;5055704;28;19986;-54
2023/07/12 10:18:23;;;;;;;7.30;3.75;;;35.60;98.50;;;;;;5053828;28;20028;-53
2023/07/12 10:20:50;;;;;;;8.45;3.72;;;35.50;99.00;;;;;;5056189;28;20024;-53
2023/07/12 10:23:18;;;;;;;5.53;3.25;;;35.70;99.10;;;;;;5062041;28;20040;-54
2023/07/12 10:25:48;;;;;;;7.70;3.78;;;35.70;99.00;;;;;;5027283;28;20052;-54
2023/07/12 10:28:23;;;;;;;4.25;3.20;;;35.50;98.70;;;;;;5030230;28;20033;-54
2023/07/12 10:30:50;;;;;;;9.00;3.88;;;35.60;98.60;;;;;;5026738;28;20485;-53
2023/07/12 10:33:22;;;;;;;8.35;3.72;;;36.00;98.70;;;;;;5030648;28;20021;-53
2023/07/12 10:35:52;;;;;;;5.25;3.53;;;36.40;98.20;;;;;;5041070;28;20032;-54
2023/07/12 10:38:21;;;;;;;8.98;3.13;;;36.90;98.20;;;;;;5097877;28;20034;-54
2023/07/12 10:41:07;;;;;;;10.60;3.75;;;36.80;97.60;;;;;;5107884;28;20457;-53
2023/07/12 10:43:42;;;;;;;9.48;3.50;;;37.00;97.80;;;;;;5101693;28;20035;-54
2023/07/12 10:46:15;;;;;;;7.50;3.80;;;37.30;97.60;;;;;;5101088;28;20566;-53
2023/07/12 10:48:48;;;;;;;8.57;4.10;;;37.30;96.90;;;;;;5088985;28;20036;-53
2023/07/12 10:51:21;;;;;;;7.18;3.85;;;37.30;97.20;;;;;;5099738;28;20416;-54
2023/07/12 10:53:54;;;;;;;9.32;4.03;;;;;;;;;;5100166;28;20051;-53
2023/07/12 10:56:54;;;;;;;4.82;3.30;;;37.80;96.70;;;;;;5109366;27;20047;-54
2023/07/12 10:59:30;;;;;;;10.80;3.90;;;38.20;97.10;;;;;;5129893;27;20447;-53
2023/07/12 11:01:57;;;;;;;7.05;3.30;;;;;;;;;;5123388;27;20118;-53
2023/07/12 11:04:35;;;;;;;8.70;3.70;;;38.20;96.00;;;;;;5126770;27;20054;-54
2023/07/12 11:07:07;;;;;;;9.68;3.58;;;37.80;96.90;;;;;;5129251;27;20411;-53
2023/07/12 11:09:47;;;;;;;8.25;3.85;;;38.00;95.60;;;;;;5119240;27;20474;-54
2023/07/12 11:12:25;;;;;;;6.88;4.05;;;;;;;;;;5124300;27;20040;-53
2023/07/12 11:14:52;;;;;;;7.72;3.72;;;;;;;;;;5128179;27;20427;-54
2023/07/12 11:17:25;;;;;;;8.60;3.88;;;39.00;94.50;;;;;;5131088;27;20019;-53
2023/07/12 11:20:25;;;;;;;6.15;3.38;;;38.60;94.70;;;;;;5120333;27;20088;-53
2023/07/12 11:22:56;;;;;;;11.02;4.38;;;38.80;94.80;;;;;;5032027;28;20384;-54
2023/07/12 11:25:24;;;;;;;;;;;39.00;94.70;;;;;;5055050;28;20056;-53
2023/07/12 11:27:53;;;;;;;11.02;4.18;;;39.30;95.90;;;;;;5055667;28;20327;-53
2023/07/12 11:30:26;;;;;;;8.98;4.45;;;39.20;94.00;;;;;;5038836;28;20056;-54
2023/07/12 11:33:08;;;;;;;5.55;3.38;;;39.10;94.80;;;;;;5051806;28;20037;-53
2023/07/12 11:35:47;;;;;;;10.40;3.53;;;;;;;;;;5038624;28;20040;-53
2023/07/12 11:38:36;;;;;;;7.93;3.90;;;39.10;93.90;;;;;;5055202;28;20040;-52
2023/07/12 11:41:13;;;;;;;5.95;3.42;;;39.60;94.50;;;;;;5033005;28;20523;-53
2023/07/12 11:43:39;;;;;;;6.18;4.10;;;39.60;94.50;;;;;;5053097;28;20033;-53
2023/07/12 11:46:19;;;;;;;10.27;4.15;;;39.70;93.90;;;;;;5052607;28;20056;-53
2023/07/12 11:49:24;;;;;;;8.88;3.70;;;39.00;93.40;;;;;;5042353;28;20100;-53
2023/07/12 11:51:54;;;;;;;6.35;3.78;;;38.80;93.00;;;;;;4991588;28;20166;-53
2023/07/12 11:54:22;;;;;;;6.55;3.58;;;39.30;93.80;;;;;;4990557;28;20054;-53
2023/07/12 11:56:49;;;;;;;7.47;3.38;;;39.60;93.60;;;;;;4988196;28;20397;-53
2023/07/12 11:59:18;;;;;;;6.00;3.97;;;39.90;97.00;;;;;;5055409;28;20083;-53
2023/07/12 12:01:46;;;;;;;8.80;3.80;;;40.10;93.50;;;;;;5063863;28;20204;-53
2023/07/12 12:04:38;;;;;;;11.10;3.72;;;40.30;93.20;;;;;;5053536;28;20424;-52
2023/07/12 12:07:06;;;;;;;6.40;4.05;;;;;;;;;;5062528;28;20036;-54
2023/07/12 12:09:35;;;;;;;5.88;4.05;;;40.30;92.70;;;;;;5047905;28;20087;-52
2023/07/12 12:12:02;;;;;;;7.68;3.65;;;40.60;92.70;;;;;;5062585;28;20116;-52
2023/07/12 12:14:30;;;;;;;9.23;4.65;;;;;;;;;;5068819;28;20506;-53
2023/07/12 12:16:57;;;;;;;8.20;3.72;;;;;;;;;;5060955;28;20025;-53
2023/07/12 12:19:30;;;;;;;7.53;3.88;;;40.80;99.90;;;;;;5056559;28;20029;-52
2023/07/12 12:22:11;;;;;;;7.60;4.03;;;40.70;92.40;;;;;;5051946;28;20050;-52
2023/07/12 12:24:49;;;;;;;6.18;3.50;;;40.90;93.80;;;;;;5064054;28;20055;-52
2023/07/12 12:27:31;;;;;;;9.90;3.53;;;41.20;92.60;;;;;;5070944;28;20131;-53
2023/07/12 12:30:17;;;;;;;6.72;3.88;;;41.20;92.50;;;;;;5124448;28;20024;-53
2023/07/12 12:33:02;;;;;;;7.40;3.42;;;41.30;92.10;;;;;;5153006;27;20589;-52
2023/07/12 12:35:29;;;;;;;12.75;4.38;;;41.20;91.70;;;;;;5129162;28;20088;-52
2023/07/12 12:38:15;;;;;;;7.50;3.95;;;41.10;91.80;;;;;;5125871;28;20015;-53
2023/07/12 12:40:53;;;;;;;6.03;4.05;;;40.90;91.80;;;;;;5092720;28;20050;-52
2023/07/12 12:43:19;;;;;;;7.60;3.78;;;41.00;91.80;;;;;;5119059;28;20027;-52
2023/07/12 12:45:45;;;;;;;11.30;4.78;;;41.00;91.60;;;;;;5125498;28;20479;-52
2023/07/12 12:48:12;;;;;;;6.43;3.80;;;41.10;91.70;;;;;;5123917;28;20144;-52
2023/07/12 12:50:38;;;;;;;8.90;3.70;;;41.00;91.40;;;;;;5096685;28;20036;-52
2023/07/12 12:53:05;;;;;;;8.23;3.55;;;40.60;91.70;;;;;;5128523;27;20440;-53
2023/07/12 12:55:33;;;;;;;7.88;3.92;;;40.40;91.50;;;;;;5120612;28;20027;-52
2023/07/12 12:58:00;;;;;;;7.05;4.00;;;40.60;91.50;;;;;;5117042;28;20032;-52
2023/07/12 13:00:27;;;;;;;5.88;3.90;;;40.70;91.60;;;;;;5121347;28;20073;-53
2023/07/12 13:02:53;;;;;;;7.20;3.80;;;40.60;91.80;;;;;;5123127;28;20535;-52
2023/07/12 13:05:22;;;;;;;6.25;4.07;;;40.70;91.00;;;;;;5116143;28;20150;-52
2023/07/12 13:07:49;;;;;;;5.15;3.60;;;40.80;91.40;;;;;;5123665;27;20098;-53
2023/07/12 13:10:19;;;;;;;6.63;3.72;;;40.70;91.00;;;;;;5130808;27;20019;-52
2023/07/12 13:12:45;;;;;;;9.10;4.28;;;40.50;90.90;;;;;;5130794;27;20039;-52
2023/07/12 13:15:15;;;;;;;7.65;3.95;;;40.60;91.00;;;;;;5130027;27;20054;-53